<?xml version='1.0' encoding='UTF-8'?>
<gpx version="1.1" creator="https://www.komoot.de" xmlns="http://www.topografix.com/GPX/1/1" xmlns:xsi="http://www.w3.org/2001/XMLSchema-instance" xsi:schemaLocation="http://www.topografix.com/GPX/1/1 http://www.topografix.com/GPX/1/1/gpx.xsd">
  <metadata>
    <name>GTW*106*17.10.2026-Hohenbrunn-20km</name>
    <author>
      <link href="https://www.komoot.de">
        <text>komoot</text>
        <type>text/html</type>
      </link>
    </author>
  </metadata>
  <trk>
    <name>GTW*106*17.10.2026-Hohenbrunn-20km</name>
    <type>hike</type>
    <trkseg>
      <trkpt lat="48.047268" lon="11.698275">
        <ele>568.108825</ele>
        <time>2026-08-09T09:19:36.116Z</time>
      </trkpt>
      <trkpt lat="48.047353" lon="11.698187">
        <ele>568.108825</ele>
        <time>2026-08-09T09:19:44.422Z</time>
      </trkpt>
      <trkpt lat="48.047383" lon="11.698252">
        <ele>568.108825</ele>
        <time>2026-08-09T09:19:48.657Z</time>
      </trkpt>
      <trkpt lat="48.047401" lon="11.698233">
        <ele>568.108825</ele>
        <time>2026-08-09T09:19:50.449Z</time>
      </trkpt>
      <trkpt lat="48.047410" lon="11.698289">
        <ele>568.108825</ele>
        <time>2026-08-09T09:19:53.525Z</time>
      </trkpt>
      <trkpt lat="48.047436" lon="11.698339">
        <ele>568.108825</ele>
        <time>2026-08-09T09:19:56.959Z</time>
      </trkpt>
      <trkpt lat="48.047450" lon="11.698365">
        <ele>568.108825</ele>
        <time>2026-08-09T09:19:58.768Z</time>
      </trkpt>
      <trkpt lat="48.047580" lon="11.698611">
        <ele>568.108825</ele>
        <time>2026-08-09T09:20:15.593Z</time>
      </trkpt>
      <trkpt lat="48.047680" lon="11.699208">
        <ele>568.109880</ele>
        <time>2026-08-09T09:20:48.699Z</time>
      </trkpt>
      <trkpt lat="48.047691" lon="11.699306">
        <ele>568.132328</ele>
        <time>2026-08-09T09:20:54.058Z</time>
      </trkpt>
      <trkpt lat="48.047718" lon="11.699527">
        <ele>568.183077</ele>
        <time>2026-08-09T09:21:06.180Z</time>
      </trkpt>
      <trkpt lat="48.047770" lon="11.699601">
        <ele>568.207329</ele>
        <time>2026-08-09T09:21:11.984Z</time>
      </trkpt>
      <trkpt lat="48.047780" lon="11.699752">
        <ele>568.241606</ele>
        <time>2026-08-09T09:21:20.293Z</time>
      </trkpt>
      <trkpt lat="48.047800" lon="11.699952">
        <ele>568.287287</ele>
        <time>2026-08-09T09:21:31.296Z</time>
      </trkpt>
      <trkpt lat="48.047841" lon="11.700263">
        <ele>568.358892</ele>
        <time>2026-08-09T09:21:48.525Z</time>
      </trkpt>
      <trkpt lat="48.047873" lon="11.700516">
        <ele>568.417057</ele>
        <time>2026-08-09T09:22:02.446Z</time>
      </trkpt>
      <trkpt lat="48.047953" lon="11.701050">
        <ele>568.540674</ele>
        <time>2026-08-09T09:22:32.199Z</time>
      </trkpt>
      <trkpt lat="48.047996" lon="11.701367">
        <ele>568.613741</ele>
        <time>2026-08-09T09:22:49.728Z</time>
      </trkpt>
      <trkpt lat="48.048052" lon="11.701828">
        <ele>568.716593</ele>
        <time>2026-08-09T09:23:15.271Z</time>
      </trkpt>
      <trkpt lat="48.048056" lon="11.701924">
        <ele>568.716596</ele>
        <time>2026-08-09T09:23:20.523Z</time>
      </trkpt>
      <trkpt lat="48.048023" lon="11.701989">
        <ele>568.716599</ele>
        <time>2026-08-09T09:23:24.996Z</time>
      </trkpt>
      <trkpt lat="48.048024" lon="11.702011">
        <ele>568.716600</ele>
        <time>2026-08-09T09:23:26.265Z</time>
      </trkpt>
      <trkpt lat="48.048030" lon="11.702099">
        <ele>568.716603</ele>
        <time>2026-08-09T09:23:31.091Z</time>
      </trkpt>
      <trkpt lat="48.048035" lon="11.702227">
        <ele>568.716608</ele>
        <time>2026-08-09T09:23:38.153Z</time>
      </trkpt>
      <trkpt lat="48.048079" lon="11.702261">
        <ele>568.716610</ele>
        <time>2026-08-09T09:23:42.230Z</time>
      </trkpt>
      <trkpt lat="48.048085" lon="11.702355">
        <ele>568.716614</ele>
        <time>2026-08-09T09:23:47.390Z</time>
      </trkpt>
      <trkpt lat="48.048099" lon="11.702585">
        <ele>568.716622</ele>
        <time>2026-08-09T09:23:59.927Z</time>
      </trkpt>
      <trkpt lat="48.048148" lon="11.702591">
        <ele>568.716624</ele>
        <time>2026-08-09T09:24:03.897Z</time>
      </trkpt>
      <trkpt lat="48.048147" lon="11.702796">
        <ele>568.716632</ele>
        <time>2026-08-09T09:24:14.865Z</time>
      </trkpt>
      <trkpt lat="48.048146" lon="11.702887">
        <ele>568.716635</ele>
        <time>2026-08-09T09:24:19.734Z</time>
      </trkpt>
      <trkpt lat="48.048159" lon="11.703064">
        <ele>568.716641</ele>
        <time>2026-08-09T09:24:29.317Z</time>
      </trkpt>
      <trkpt lat="48.048169" lon="11.703164">
        <ele>568.716645</ele>
        <time>2026-08-09T09:24:34.721Z</time>
      </trkpt>
      <trkpt lat="48.048192" lon="11.703361">
        <ele>568.716652</ele>
        <time>2026-08-09T09:24:45.468Z</time>
      </trkpt>
      <trkpt lat="48.048285" lon="11.704139">
        <ele>568.716680</ele>
        <time>2026-08-09T09:25:27.871Z</time>
      </trkpt>
      <trkpt lat="48.048305" lon="11.704301">
        <ele>568.716686</ele>
        <time>2026-08-09T09:25:36.808Z</time>
      </trkpt>
      <trkpt lat="48.048310" lon="11.704349">
        <ele>568.716687</ele>
        <time>2026-08-09T09:25:39.457Z</time>
      </trkpt>
      <trkpt lat="48.048338" lon="11.704710">
        <ele>568.603679</ele>
        <time>2026-08-09T09:25:59.227Z</time>
      </trkpt>
      <trkpt lat="48.048398" lon="11.705103">
        <ele>568.475166</ele>
        <time>2026-08-09T09:26:21.207Z</time>
      </trkpt>
      <trkpt lat="48.048463" lon="11.705300">
        <ele>568.405130</ele>
        <time>2026-08-09T09:26:33.128Z</time>
      </trkpt>
      <trkpt lat="48.048415" lon="11.705365">
        <ele>568.374254</ele>
        <time>2026-08-09T09:26:38.368Z</time>
      </trkpt>
      <trkpt lat="48.048383" lon="11.705438">
        <ele>568.346424</ele>
        <time>2026-08-09T09:26:43.097Z</time>
      </trkpt>
      <trkpt lat="48.048361" lon="11.705486">
        <ele>568.327871</ele>
        <time>2026-08-09T09:26:46.266Z</time>
      </trkpt>
      <trkpt lat="48.048339" lon="11.705932">
        <ele>568.185301</ele>
        <time>2026-08-09T09:27:10.490Z</time>
      </trkpt>
      <trkpt lat="48.048378" lon="11.706383">
        <ele>568.040326</ele>
        <time>2026-08-09T09:27:35.059Z</time>
      </trkpt>
      <trkpt lat="48.048479" lon="11.708322">
        <ele>567.736070</ele>
        <time>2026-08-09T09:29:19.489Z</time>
      </trkpt>
      <trkpt lat="48.048664" lon="11.710064">
        <ele>567.579496</ele>
        <time>2026-08-09T09:30:53.990Z</time>
      </trkpt>
      <trkpt lat="48.048771" lon="11.712015">
        <ele>567.408805</ele>
        <time>2026-08-09T09:32:39.166Z</time>
      </trkpt>
      <trkpt lat="48.048844" lon="11.713160">
        <ele>567.384288</ele>
        <time>2026-08-09T09:33:40.784Z</time>
      </trkpt>
      <trkpt lat="48.049050" lon="11.715426">
        <ele>567.396196</ele>
        <time>2026-08-09T09:35:43.386Z</time>
      </trkpt>
      <trkpt lat="48.049236" lon="11.716670">
        <ele>567.427678</ele>
        <time>2026-08-09T09:36:51.801Z</time>
      </trkpt>
      <trkpt lat="48.049597" lon="11.718693">
        <ele>567.607285</ele>
        <time>2026-08-09T09:38:44.068Z</time>
      </trkpt>
      <trkpt lat="48.049676" lon="11.719275">
        <ele>567.688540</ele>
        <time>2026-08-09T09:39:15.949Z</time>
      </trkpt>
      <trkpt lat="48.049676" lon="11.719498">
        <ele>567.719052</ele>
        <time>2026-08-09T09:39:27.997Z</time>
      </trkpt>
      <trkpt lat="48.049692" lon="11.719594">
        <ele>567.732589</ele>
        <time>2026-08-09T09:39:33.385Z</time>
      </trkpt>
      <trkpt lat="48.049662" lon="11.720107">
        <ele>567.803047</ele>
        <time>2026-08-09T09:40:01.482Z</time>
      </trkpt>
      <trkpt lat="48.049565" lon="11.720416">
        <ele>567.949445</ele>
        <time>2026-08-09T09:40:20.288Z</time>
      </trkpt>
      <trkpt lat="48.049132" lon="11.721326">
        <ele>568.603455</ele>
        <time>2026-08-09T09:41:22.139Z</time>
      </trkpt>
      <trkpt lat="48.048989" lon="11.721917">
        <ele>568.971467</ele>
        <time>2026-08-09T09:41:57.085Z</time>
      </trkpt>
      <trkpt lat="48.048509" lon="11.723348">
        <ele>569.758128</ele>
        <time>2026-08-09T09:43:25.258Z</time>
      </trkpt>
      <trkpt lat="48.048482" lon="11.723553">
        <ele>569.844592</ele>
        <time>2026-08-09T09:43:36.638Z</time>
      </trkpt>
      <trkpt lat="48.048558" lon="11.724354">
        <ele>570.179380</ele>
        <time>2026-08-09T09:44:20.748Z</time>
      </trkpt>
      <trkpt lat="48.048566" lon="11.724583">
        <ele>570.274273</ele>
        <time>2026-08-09T09:44:33.251Z</time>
      </trkpt>
      <trkpt lat="48.048760" lon="11.730346">
        <ele>572.300863</ele>
        <time>2026-08-09T09:49:47.987Z</time>
      </trkpt>
      <trkpt lat="48.048805" lon="11.732049">
        <ele>571.903613</ele>
        <time>2026-08-09T09:51:19.932Z</time>
      </trkpt>
      <trkpt lat="48.048793" lon="11.732869">
        <ele>571.659775</ele>
        <time>2026-08-09T09:52:04.591Z</time>
      </trkpt>
      <trkpt lat="48.048902" lon="11.736202">
        <ele>568.126103</ele>
        <time>2026-08-09T09:55:10.856Z</time>
      </trkpt>
      <trkpt lat="48.048849" lon="11.737121">
        <ele>567.999648</ele>
        <time>2026-08-09T09:56:01.179Z</time>
      </trkpt>
      <trkpt lat="48.048871" lon="11.737624">
        <ele>567.930543</ele>
        <time>2026-08-09T09:56:28.152Z</time>
      </trkpt>
      <trkpt lat="48.048883" lon="11.739082">
        <ele>568.116604</ele>
        <time>2026-08-09T09:57:49.291Z</time>
      </trkpt>
      <trkpt lat="48.048939" lon="11.740199">
        <ele>568.830490</ele>
        <time>2026-08-09T09:58:53.085Z</time>
      </trkpt>
      <trkpt lat="48.048958" lon="11.741383">
        <ele>569.451602</ele>
        <time>2026-08-09T09:59:57.593Z</time>
      </trkpt>
      <trkpt lat="48.048982" lon="11.741716">
        <ele>569.266258</ele>
        <time>2026-08-09T10:00:15.693Z</time>
      </trkpt>
      <trkpt lat="48.048969" lon="11.742122">
        <ele>569.041328</ele>
        <time>2026-08-09T10:00:37.910Z</time>
      </trkpt>
      <trkpt lat="48.048903" lon="11.742491">
        <ele>568.829947</ele>
        <time>2026-08-09T10:00:58.817Z</time>
      </trkpt>
      <trkpt lat="48.048841" lon="11.743573">
        <ele>568.228992</ele>
        <time>2026-08-09T10:01:58.625Z</time>
      </trkpt>
      <trkpt lat="48.048723" lon="11.744464">
        <ele>567.951372</ele>
        <time>2026-08-09T10:02:48.227Z</time>
      </trkpt>
      <trkpt lat="48.047960" lon="11.744646">
        <ele>567.793990</ele>
        <time>2026-08-09T10:03:50.410Z</time>
      </trkpt>
      <trkpt lat="48.046744" lon="11.744935">
        <ele>568.247846</ele>
        <time>2026-08-09T10:05:30.337Z</time>
      </trkpt>
      <trkpt lat="48.045600" lon="11.745197">
        <ele>569.453442</ele>
        <time>2026-08-09T10:07:07.806Z</time>
      </trkpt>
      <trkpt lat="48.044988" lon="11.745357">
        <ele>569.916396</ele>
        <time>2026-08-09T10:07:59.914Z</time>
      </trkpt>
      <trkpt lat="48.042265" lon="11.746066">
        <ele>571.037528</ele>
        <time>2026-08-09T10:11:44.355Z</time>
      </trkpt>
      <trkpt lat="48.042458" lon="11.747957">
        <ele>570.913166</ele>
        <time>2026-08-09T10:13:28.294Z</time>
      </trkpt>
      <trkpt lat="48.043028" lon="11.752757">
        <ele>572.075760</ele>
        <time>2026-08-09T10:17:52.460Z</time>
      </trkpt>
      <trkpt lat="48.042644" lon="11.752849">
        <ele>572.478102</ele>
        <time>2026-08-09T10:18:25.072Z</time>
      </trkpt>
      <trkpt lat="48.041863" lon="11.753038">
        <ele>573.310228</ele>
        <time>2026-08-09T10:19:31.561Z</time>
      </trkpt>
      <trkpt lat="48.041752" lon="11.753062">
        <ele>573.470026</ele>
        <time>2026-08-09T10:19:41.094Z</time>
      </trkpt>
      <trkpt lat="48.041717" lon="11.753069">
        <ele>573.520338</ele>
        <time>2026-08-09T10:19:44.023Z</time>
      </trkpt>
      <trkpt lat="48.041659" lon="11.753080">
        <ele>573.603639</ele>
        <time>2026-08-09T10:19:48.964Z</time>
      </trkpt>
      <trkpt lat="48.041503" lon="11.753118">
        <ele>573.828838</ele>
        <time>2026-08-09T10:20:02.306Z</time>
      </trkpt>
      <trkpt lat="48.040880" lon="11.753271">
        <ele>574.728382</ele>
        <time>2026-08-09T10:20:55.478Z</time>
      </trkpt>
      <trkpt lat="48.039331" lon="11.753656">
        <ele>576.252072</ele>
        <time>2026-08-09T10:23:07.335Z</time>
      </trkpt>
      <trkpt lat="48.038476" lon="11.753849">
        <ele>576.714517</ele>
        <time>2026-08-09T10:24:16.964Z</time>
      </trkpt>
      <trkpt lat="48.036242" lon="11.754408">
        <ele>576.203378</ele>
        <time>2026-08-09T10:27:20.805Z</time>
      </trkpt>
      <trkpt lat="48.034026" lon="11.754928">
        <ele>578.112672</ele>
        <time>2026-08-09T10:30:29.263Z</time>
      </trkpt>
      <trkpt lat="48.033910" lon="11.753790">
        <ele>578.698242</ele>
        <time>2026-08-09T10:31:32.201Z</time>
      </trkpt>
      <trkpt lat="48.033778" lon="11.752497">
        <ele>578.679567</ele>
        <time>2026-08-09T10:32:42.547Z</time>
      </trkpt>
      <trkpt lat="48.033294" lon="11.748264">
        <ele>577.481589</ele>
        <time>2026-08-09T10:36:34.897Z</time>
      </trkpt>
      <trkpt lat="48.032364" lon="11.748490">
        <ele>577.324648</ele>
        <time>2026-08-09T10:37:50.708Z</time>
      </trkpt>
      <trkpt lat="48.030596" lon="11.748919">
        <ele>577.423356</ele>
        <time>2026-08-09T10:40:14.129Z</time>
      </trkpt>
      <trkpt lat="48.028820" lon="11.749424">
        <ele>578.534104</ele>
        <time>2026-08-09T10:42:41.464Z</time>
      </trkpt>
      <trkpt lat="48.026460" lon="11.749962">
        <ele>580.997102</ele>
        <time>2026-08-09T10:46:02.498Z</time>
      </trkpt>
      <trkpt lat="48.026693" lon="11.751859">
        <ele>580.155400</ele>
        <time>2026-08-09T10:47:46.281Z</time>
      </trkpt>
      <trkpt lat="48.026787" lon="11.752933">
        <ele>579.193198</ele>
        <time>2026-08-09T10:48:47.450Z</time>
      </trkpt>
      <trkpt lat="48.026904" lon="11.753773">
        <ele>578.814747</ele>
        <time>2026-08-09T10:49:36.059Z</time>
      </trkpt>
      <trkpt lat="48.026912" lon="11.753837">
        <ele>578.796487</ele>
        <time>2026-08-09T10:49:39.689Z</time>
      </trkpt>
      <trkpt lat="48.027070" lon="11.754788">
        <ele>578.521676</ele>
        <time>2026-08-09T10:50:32.852Z</time>
      </trkpt>
      <trkpt lat="48.027269" lon="11.755757">
        <ele>578.238067</ele>
        <time>2026-08-09T10:51:29.636Z</time>
      </trkpt>
      <trkpt lat="48.027389" lon="11.756561">
        <ele>579.037265</ele>
        <time>2026-08-09T10:52:16.695Z</time>
      </trkpt>
      <trkpt lat="48.027074" lon="11.756638">
        <ele>579.500285</ele>
        <time>2026-08-09T10:52:43.940Z</time>
      </trkpt>
      <trkpt lat="48.025075" lon="11.757107">
        <ele>582.071487</ele>
        <time>2026-08-09T10:55:32.909Z</time>
      </trkpt>
      <trkpt lat="48.023500" lon="11.757490">
        <ele>582.859923</ele>
        <time>2026-08-09T10:57:45.080Z</time>
      </trkpt>
      <trkpt lat="48.022814" lon="11.757656">
        <ele>582.861430</ele>
        <time>2026-08-09T10:58:41.270Z</time>
      </trkpt>
      <trkpt lat="48.023158" lon="11.760014">
        <ele>581.177954</ele>
        <time>2026-08-09T11:00:55.130Z</time>
      </trkpt>
      <trkpt lat="48.023134" lon="11.761466">
        <ele>580.981575</ele>
        <time>2026-08-09T11:02:13.039Z</time>
      </trkpt>
      <trkpt lat="48.023423" lon="11.764329">
        <ele>582.197296</ele>
        <time>2026-08-09T11:04:52.862Z</time>
      </trkpt>
      <trkpt lat="48.023584" lon="11.765450">
        <ele>582.867232</ele>
        <time>2026-08-09T11:05:56.279Z</time>
      </trkpt>
      <trkpt lat="48.023912" lon="11.767043">
        <ele>583.253185</ele>
        <time>2026-08-09T11:07:27.973Z</time>
      </trkpt>
      <trkpt lat="48.023974" lon="11.767733">
        <ele>583.316250</ele>
        <time>2026-08-09T11:08:05.752Z</time>
      </trkpt>
      <trkpt lat="48.024261" lon="11.770940">
        <ele>581.321949</ele>
        <time>2026-08-09T11:11:02.214Z</time>
      </trkpt>
      <trkpt lat="48.025610" lon="11.770603">
        <ele>578.423278</ele>
        <time>2026-08-09T11:12:58.995Z</time>
      </trkpt>
      <trkpt lat="48.026517" lon="11.770381">
        <ele>577.459875</ele>
        <time>2026-08-09T11:14:14.659Z</time>
      </trkpt>
      <trkpt lat="48.027288" lon="11.777040">
        <ele>582.164420</ele>
        <time>2026-08-09T11:20:36.892Z</time>
      </trkpt>
      <trkpt lat="48.028779" lon="11.776724">
        <ele>580.551388</ele>
        <time>2026-08-09T11:22:41.199Z</time>
      </trkpt>
      <trkpt lat="48.030642" lon="11.776243">
        <ele>575.938212</ele>
        <time>2026-08-09T11:25:21.225Z</time>
      </trkpt>
      <trkpt lat="48.031729" lon="11.775962">
        <ele>573.228991</ele>
        <time>2026-08-09T11:26:54.679Z</time>
      </trkpt>
      <trkpt lat="48.031896" lon="11.777764">
        <ele>571.076461</ele>
        <time>2026-08-09T11:28:36.072Z</time>
      </trkpt>
      <trkpt lat="48.032322" lon="11.781455">
        <ele>570.615191</ele>
        <time>2026-08-09T11:31:56.864Z</time>
      </trkpt>
      <trkpt lat="48.032378" lon="11.781940">
        <ele>570.678314</ele>
        <time>2026-08-09T11:32:23.853Z</time>
      </trkpt>
      <trkpt lat="48.032478" lon="11.782703">
        <ele>570.778031</ele>
        <time>2026-08-09T11:33:06.425Z</time>
      </trkpt>
      <trkpt lat="48.034292" lon="11.782208">
        <ele>570.064150</ele>
        <time>2026-08-09T11:35:35.221Z</time>
      </trkpt>
      <trkpt lat="48.034274" lon="11.781076">
        <ele>569.586743</ele>
        <time>2026-08-09T11:36:37.486Z</time>
      </trkpt>
      <trkpt lat="48.034374" lon="11.779767">
        <ele>568.985325</ele>
        <time>2026-08-09T11:37:49.378Z</time>
      </trkpt>
      <trkpt lat="48.034445" lon="11.779449">
        <ele>568.832286</ele>
        <time>2026-08-09T11:38:07.361Z</time>
      </trkpt>
      <trkpt lat="48.034549" lon="11.778333">
        <ele>568.633333</ele>
        <time>2026-08-09T11:39:07.763Z</time>
      </trkpt>
      <trkpt lat="48.034647" lon="11.778026">
        <ele>568.666915</ele>
        <time>2026-08-09T11:39:26.022Z</time>
      </trkpt>
      <trkpt lat="48.035141" lon="11.776486">
        <ele>568.835525</ele>
        <time>2026-08-09T11:40:58.057Z</time>
      </trkpt>
      <trkpt lat="48.035674" lon="11.775006">
        <ele>569.274405</ele>
        <time>2026-08-09T11:42:30.192Z</time>
      </trkpt>
      <trkpt lat="48.036186" lon="11.774889">
        <ele>569.482388</ele>
        <time>2026-08-09T11:43:12.135Z</time>
      </trkpt>
      <trkpt lat="48.036143" lon="11.774536">
        <ele>569.559977</ele>
        <time>2026-08-09T11:43:31.360Z</time>
      </trkpt>
      <trkpt lat="48.036274" lon="11.774197">
        <ele>569.521085</ele>
        <time>2026-08-09T11:43:52.391Z</time>
      </trkpt>
      <trkpt lat="48.036465" lon="11.773816">
        <ele>569.473784</ele>
        <time>2026-08-09T11:44:17.873Z</time>
      </trkpt>
      <trkpt lat="48.036820" lon="11.773327">
        <ele>569.402087</ele>
        <time>2026-08-09T11:44:56.594Z</time>
      </trkpt>
      <trkpt lat="48.037247" lon="11.772661">
        <ele>569.310436</ele>
        <time>2026-08-09T11:45:46.229Z</time>
      </trkpt>
      <trkpt lat="48.037574" lon="11.771860">
        <ele>569.242201</ele>
        <time>2026-08-09T11:46:36.992Z</time>
      </trkpt>
      <trkpt lat="48.037883" lon="11.770950">
        <ele>569.172238</ele>
        <time>2026-08-09T11:47:32.376Z</time>
      </trkpt>
      <trkpt lat="48.038059" lon="11.770432">
        <ele>569.132408</ele>
        <time>2026-08-09T11:48:03.542Z</time>
      </trkpt>
      <trkpt lat="48.038382" lon="11.769516">
        <ele>570.294804</ele>
        <time>2026-08-09T11:49:01.199Z</time>
      </trkpt>
      <trkpt lat="48.038719" lon="11.768383">
        <ele>572.224898</ele>
        <time>2026-08-09T11:50:15.285Z</time>
      </trkpt>
      <trkpt lat="48.038877" lon="11.767389">
        <ele>573.604231</ele>
        <time>2026-08-09T11:51:15.797Z</time>
      </trkpt>
      <trkpt lat="48.039979" lon="11.767103">
        <ele>575.141045</ele>
        <time>2026-08-09T11:52:49.782Z</time>
      </trkpt>
      <trkpt lat="48.042054" lon="11.766645">
        <ele>575.418012</ele>
        <time>2026-08-09T11:55:38.276Z</time>
      </trkpt>
      <trkpt lat="48.042492" lon="11.766549">
        <ele>574.674466</ele>
        <time>2026-08-09T11:56:14.720Z</time>
      </trkpt>
      <trkpt lat="48.044437" lon="11.766098">
        <ele>570.027527</ele>
        <time>2026-08-09T11:59:02.112Z</time>
      </trkpt>
      <trkpt lat="48.046464" lon="11.765638">
        <ele>567.583651</ele>
        <time>2026-08-09T12:01:51.033Z</time>
      </trkpt>
      <trkpt lat="48.047993" lon="11.765254">
        <ele>568.151734</ele>
        <time>2026-08-09T12:03:59.716Z</time>
      </trkpt>
      <trkpt lat="48.048128" lon="11.765222">
        <ele>568.293111</ele>
        <time>2026-08-09T12:04:11.461Z</time>
      </trkpt>
      <trkpt lat="48.048263" lon="11.765063">
        <ele>568.470832</ele>
        <time>2026-08-09T12:04:26.063Z</time>
      </trkpt>
      <trkpt lat="48.048666" lon="11.764400">
        <ele>569.090439</ele>
        <time>2026-08-09T12:05:16.488Z</time>
      </trkpt>
      <trkpt lat="48.048755" lon="11.764284">
        <ele>569.212536</ele>
        <time>2026-08-09T12:05:26.176Z</time>
      </trkpt>
      <trkpt lat="48.048963" lon="11.764013">
        <ele>569.497838</ele>
        <time>2026-08-09T12:05:48.388Z</time>
      </trkpt>
      <trkpt lat="48.048973" lon="11.763763">
        <ele>569.527346</ele>
        <time>2026-08-09T12:06:01.822Z</time>
      </trkpt>
      <trkpt lat="48.049025" lon="11.763547">
        <ele>569.510482</ele>
        <time>2026-08-09T12:06:14.137Z</time>
      </trkpt>
      <trkpt lat="48.049069" lon="11.763486">
        <ele>569.503890</ele>
        <time>2026-08-09T12:06:18.949Z</time>
      </trkpt>
      <trkpt lat="48.049124" lon="11.763407">
        <ele>569.495511</ele>
        <time>2026-08-09T12:06:25.111Z</time>
      </trkpt>
      <trkpt lat="48.048752" lon="11.762934">
        <ele>569.441863</ele>
        <time>2026-08-09T12:07:04.655Z</time>
      </trkpt>
      <trkpt lat="48.048758" lon="11.762876">
        <ele>569.437551</ele>
        <time>2026-08-09T12:07:07.845Z</time>
      </trkpt>
      <trkpt lat="48.048210" lon="11.758414">
        <ele>569.121251</ele>
        <time>2026-08-09T12:11:11.007Z</time>
      </trkpt>
      <trkpt lat="48.047887" lon="11.755411">
        <ele>568.894534</ele>
        <time>2026-08-09T12:13:54.640Z</time>
      </trkpt>
      <trkpt lat="48.047575" lon="11.752520">
        <ele>569.145988</ele>
        <time>2026-08-09T12:16:33.692Z</time>
      </trkpt>
      <trkpt lat="48.047482" lon="11.751658">
        <ele>569.193278</ele>
        <time>2026-08-09T12:17:20.495Z</time>
      </trkpt>
      <trkpt lat="48.049568" lon="11.751166">
        <ele>568.561714</ele>
        <time>2026-08-09T12:20:11.432Z</time>
      </trkpt>
      <trkpt lat="48.051985" lon="11.750601">
        <ele>568.031194</ele>
        <time>2026-08-09T12:23:28.024Z</time>
      </trkpt>
      <trkpt lat="48.052751" lon="11.750411">
        <ele>567.317115</ele>
        <time>2026-08-09T12:24:31.766Z</time>
      </trkpt>
      <trkpt lat="48.053868" lon="11.750134">
        <ele>566.241739</ele>
        <time>2026-08-09T12:26:05.452Z</time>
      </trkpt>
      <trkpt lat="48.056513" lon="11.749472">
        <ele>564.243562</ele>
        <time>2026-08-09T12:29:42.871Z</time>
      </trkpt>
      <trkpt lat="48.056406" lon="11.748537">
        <ele>563.924852</ele>
        <time>2026-08-09T12:30:34.193Z</time>
      </trkpt>
      <trkpt lat="48.056014" lon="11.745121">
        <ele>563.257868</ele>
        <time>2026-08-09T12:33:41.307Z</time>
      </trkpt>
      <trkpt lat="48.055781" lon="11.742762">
        <ele>563.176330</ele>
        <time>2026-08-09T12:35:50.762Z</time>
      </trkpt>
      <trkpt lat="48.056822" lon="11.742512">
        <ele>563.072827</ele>
        <time>2026-08-09T12:37:15.699Z</time>
      </trkpt>
      <trkpt lat="48.059508" lon="11.741865">
        <ele>561.513805</ele>
        <time>2026-08-09T12:40:56.786Z</time>
      </trkpt>
      <trkpt lat="48.059629" lon="11.741860">
        <ele>561.460200</ele>
        <time>2026-08-09T12:41:06.580Z</time>
      </trkpt>
      <trkpt lat="48.059599" lon="11.741758">
        <ele>561.427217</ele>
        <time>2026-08-09T12:41:12.593Z</time>
      </trkpt>
      <trkpt lat="48.059314" lon="11.741196">
        <ele>561.218416</ele>
        <time>2026-08-09T12:41:50.731Z</time>
      </trkpt>
      <trkpt lat="48.059332" lon="11.740625">
        <ele>561.185031</ele>
        <time>2026-08-09T12:42:21.325Z</time>
      </trkpt>
      <trkpt lat="48.059278" lon="11.740395">
        <ele>561.364997</ele>
        <time>2026-08-09T12:42:34.536Z</time>
      </trkpt>
      <trkpt lat="48.059316" lon="11.740208">
        <ele>561.509288</ele>
        <time>2026-08-09T12:42:45.195Z</time>
      </trkpt>
      <trkpt lat="48.059293" lon="11.740115">
        <ele>561.582493</ele>
        <time>2026-08-09T12:42:50.643Z</time>
      </trkpt>
      <trkpt lat="48.059249" lon="11.739937">
        <ele>561.722599</ele>
        <time>2026-08-09T12:43:01.148Z</time>
      </trkpt>
      <trkpt lat="48.059289" lon="11.739571">
        <ele>561.996382</ele>
        <time>2026-08-09T12:43:21.906Z</time>
      </trkpt>
      <trkpt lat="48.059264" lon="11.739333">
        <ele>562.174240</ele>
        <time>2026-08-09T12:43:35.528Z</time>
      </trkpt>
      <trkpt lat="48.059254" lon="11.739234">
        <ele>562.248155</ele>
        <time>2026-08-09T12:43:41.209Z</time>
      </trkpt>
      <trkpt lat="48.059166" lon="11.739005">
        <ele>562.443163</ele>
        <time>2026-08-09T12:43:56.202Z</time>
      </trkpt>
      <trkpt lat="48.059008" lon="11.738422">
        <ele>562.907594</ele>
        <time>2026-08-09T12:44:31.826Z</time>
      </trkpt>
      <trkpt lat="48.058964" lon="11.737859">
        <ele>563.166473</ele>
        <time>2026-08-09T12:45:03.882Z</time>
      </trkpt>
      <trkpt lat="48.058764" lon="11.737216">
        <ele>563.357531</ele>
        <time>2026-08-09T12:45:43.503Z</time>
      </trkpt>
      <trkpt lat="48.058671" lon="11.736329">
        <ele>563.599405</ele>
        <time>2026-08-09T12:46:32.023Z</time>
      </trkpt>
      <trkpt lat="48.058528" lon="11.735752">
        <ele>563.765187</ele>
        <time>2026-08-09T12:47:05.487Z</time>
      </trkpt>
      <trkpt lat="48.058439" lon="11.735153">
        <ele>563.797453</ele>
        <time>2026-08-09T12:47:39.014Z</time>
      </trkpt>
      <trkpt lat="48.057966" lon="11.734027">
        <ele>563.791180</ele>
        <time>2026-08-09T12:48:50.448Z</time>
      </trkpt>
      <trkpt lat="48.057874" lon="11.733794">
        <ele>563.789904</ele>
        <time>2026-08-09T12:49:05.141Z</time>
      </trkpt>
      <trkpt lat="48.057589" lon="11.733259">
        <ele>563.823655</ele>
        <time>2026-08-09T12:49:42.574Z</time>
      </trkpt>
      <trkpt lat="48.057508" lon="11.732853">
        <ele>564.020051</ele>
        <time>2026-08-09T12:50:06.068Z</time>
      </trkpt>
      <trkpt lat="48.057280" lon="11.732190">
        <ele>564.365661</ele>
        <time>2026-08-09T12:50:47.848Z</time>
      </trkpt>
      <trkpt lat="48.057250" lon="11.731986">
        <ele>564.462483</ele>
        <time>2026-08-09T12:50:59.437Z</time>
      </trkpt>
      <trkpt lat="48.057205" lon="11.731230">
        <ele>564.814297</ele>
        <time>2026-08-09T12:51:40.890Z</time>
      </trkpt>
      <trkpt lat="48.057095" lon="11.730833">
        <ele>565.013504</ele>
        <time>2026-08-09T12:52:04.064Z</time>
      </trkpt>
      <trkpt lat="48.057043" lon="11.730745">
        <ele>565.029050</ele>
        <time>2026-08-09T12:52:10.339Z</time>
      </trkpt>
      <trkpt lat="48.056800" lon="11.730114">
        <ele>564.975067</ele>
        <time>2026-08-09T12:52:49.359Z</time>
      </trkpt>
      <trkpt lat="48.055960" lon="11.728654">
        <ele>564.840019</ele>
        <time>2026-08-09T12:54:32.977Z</time>
      </trkpt>
      <trkpt lat="48.055427" lon="11.727299">
        <ele>565.062026</ele>
        <time>2026-08-09T12:55:57.291Z</time>
      </trkpt>
      <trkpt lat="48.055345" lon="11.727057">
        <ele>565.100337</ele>
        <time>2026-08-09T12:56:12.005Z</time>
      </trkpt>
      <trkpt lat="48.055261" lon="11.726643">
        <ele>565.161431</ele>
        <time>2026-08-09T12:56:35.664Z</time>
      </trkpt>
      <trkpt lat="48.055122" lon="11.726192">
        <ele>565.259677</ele>
        <time>2026-08-09T12:57:03.034Z</time>
      </trkpt>
      <trkpt lat="48.054947" lon="11.725907">
        <ele>565.406612</ele>
        <time>2026-08-09T12:57:24.608Z</time>
      </trkpt>
      <trkpt lat="48.054406" lon="11.724215">
        <ele>566.118744</ele>
        <time>2026-08-09T12:59:08.048Z</time>
      </trkpt>
      <trkpt lat="48.053962" lon="11.722702">
        <ele>565.611970</ele>
        <time>2026-08-09T13:00:37.803Z</time>
      </trkpt>
      <trkpt lat="48.053661" lon="11.721670">
        <ele>565.087920</ele>
        <time>2026-08-09T13:01:39.547Z</time>
      </trkpt>
      <trkpt lat="48.053573" lon="11.721543">
        <ele>565.002783</ele>
        <time>2026-08-09T13:01:49.541Z</time>
      </trkpt>
      <trkpt lat="48.053518" lon="11.721378">
        <ele>564.993982</ele>
        <time>2026-08-09T13:01:59.579Z</time>
      </trkpt>
      <trkpt lat="48.053216" lon="11.719683">
        <ele>565.112736</ele>
        <time>2026-08-09T13:03:33.649Z</time>
      </trkpt>
      <trkpt lat="48.053106" lon="11.719241">
        <ele>565.144665</ele>
        <time>2026-08-09T13:03:59.561Z</time>
      </trkpt>
      <trkpt lat="48.053057" lon="11.718959">
        <ele>565.164390</ele>
        <time>2026-08-09T13:04:15.602Z</time>
      </trkpt>
      <trkpt lat="48.052992" lon="11.718442">
        <ele>565.346570</ele>
        <time>2026-08-09T13:04:44.684Z</time>
      </trkpt>
      <trkpt lat="48.052912" lon="11.717363">
        <ele>565.740276</ele>
        <time>2026-08-09T13:05:44.381Z</time>
      </trkpt>
      <trkpt lat="48.052820" lon="11.716877">
        <ele>565.923458</ele>
        <time>2026-08-09T13:06:11.593Z</time>
      </trkpt>
      <trkpt lat="48.052186" lon="11.714968">
        <ele>566.265818</ele>
        <time>2026-08-09T13:08:06.381Z</time>
      </trkpt>
      <trkpt lat="48.052031" lon="11.714674">
        <ele>566.296101</ele>
        <time>2026-08-09T13:08:26.508Z</time>
      </trkpt>
      <trkpt lat="48.051900" lon="11.714459">
        <ele>566.319630</ele>
        <time>2026-08-09T13:08:42.062Z</time>
      </trkpt>
      <trkpt lat="48.051754" lon="11.714141">
        <ele>566.350831</ele>
        <time>2026-08-09T13:09:02.753Z</time>
      </trkpt>
      <trkpt lat="48.051673" lon="11.713889">
        <ele>566.364202</ele>
        <time>2026-08-09T13:09:17.717Z</time>
      </trkpt>
      <trkpt lat="48.051444" lon="11.713038">
        <ele>566.388062</ele>
        <time>2026-08-09T13:10:06.836Z</time>
      </trkpt>
      <trkpt lat="48.051149" lon="11.711669">
        <ele>566.425473</ele>
        <time>2026-08-09T13:11:23.918Z</time>
      </trkpt>
      <trkpt lat="48.051094" lon="11.711412">
        <ele>566.453991</ele>
        <time>2026-08-09T13:11:38.435Z</time>
      </trkpt>
      <trkpt lat="48.051017" lon="11.710938">
        <ele>566.568151</ele>
        <time>2026-08-09T13:12:04.915Z</time>
      </trkpt>
      <trkpt lat="48.050984" lon="11.710098">
        <ele>566.765077</ele>
        <time>2026-08-09T13:12:50.847Z</time>
      </trkpt>
      <trkpt lat="48.050928" lon="11.709654">
        <ele>566.870821</ele>
        <time>2026-08-09T13:13:15.413Z</time>
      </trkpt>
      <trkpt lat="48.050855" lon="11.709320">
        <ele>566.953060</ele>
        <time>2026-08-09T13:13:34.424Z</time>
      </trkpt>
      <trkpt lat="48.050742" lon="11.708972">
        <ele>567.043604</ele>
        <time>2026-08-09T13:13:55.342Z</time>
      </trkpt>
      <trkpt lat="48.050678" lon="11.708730">
        <ele>567.097076</ele>
        <time>2026-08-09T13:14:09.388Z</time>
      </trkpt>
      <trkpt lat="48.050596" lon="11.708382">
        <ele>567.169164</ele>
        <time>2026-08-09T13:14:29.325Z</time>
      </trkpt>
      <trkpt lat="48.050485" lon="11.707615">
        <ele>567.322483</ele>
        <time>2026-08-09T13:15:11.713Z</time>
      </trkpt>
      <trkpt lat="48.050443" lon="11.707225">
        <ele>567.399659</ele>
        <time>2026-08-09T13:15:32.891Z</time>
      </trkpt>
      <trkpt lat="48.050468" lon="11.707120">
        <ele>567.421435</ele>
        <time>2026-08-09T13:15:38.870Z</time>
      </trkpt>
      <trkpt lat="48.050431" lon="11.707084">
        <ele>567.434334</ele>
        <time>2026-08-09T13:15:42.390Z</time>
      </trkpt>
      <trkpt lat="48.050328" lon="11.706983">
        <ele>567.470328</ele>
        <time>2026-08-09T13:15:52.367Z</time>
      </trkpt>
      <trkpt lat="48.049910" lon="11.706566">
        <ele>567.645547</ele>
        <time>2026-08-09T13:16:33.265Z</time>
      </trkpt>
      <trkpt lat="48.049728" lon="11.706398">
        <ele>567.763513</ele>
        <time>2026-08-09T13:16:50.813Z</time>
      </trkpt>
      <trkpt lat="48.049372" lon="11.706157">
        <ele>567.979054</ele>
        <time>2026-08-09T13:17:22.885Z</time>
      </trkpt>
      <trkpt lat="48.049214" lon="11.706002">
        <ele>568.083276</ele>
        <time>2026-08-09T13:17:38.431Z</time>
      </trkpt>
      <trkpt lat="48.049162" lon="11.705817">
        <ele>568.157278</ele>
        <time>2026-08-09T13:17:49.416Z</time>
      </trkpt>
      <trkpt lat="48.048925" lon="11.705807">
        <ele>568.288059</ele>
        <time>2026-08-09T13:18:08.786Z</time>
      </trkpt>
      <trkpt lat="48.048745" lon="11.705737">
        <ele>568.390647</ele>
        <time>2026-08-09T13:18:23.902Z</time>
      </trkpt>
      <trkpt lat="48.048524" lon="11.705527">
        <ele>568.535066</ele>
        <time>2026-08-09T13:18:45.195Z</time>
      </trkpt>
      <trkpt lat="48.048415" lon="11.705365">
        <ele>568.592708</ele>
        <time>2026-08-09T13:18:57.703Z</time>
      </trkpt>
      <trkpt lat="48.048463" lon="11.705300">
        <ele>568.605643</ele>
        <time>2026-08-09T13:19:02.942Z</time>
      </trkpt>
      <trkpt lat="48.048398" lon="11.705103">
        <ele>568.634982</ele>
        <time>2026-08-09T13:19:14.823Z</time>
      </trkpt>
      <trkpt lat="48.048338" lon="11.704710">
        <ele>568.688819</ele>
        <time>2026-08-09T13:19:36.717Z</time>
      </trkpt>
      <trkpt lat="48.048310" lon="11.704349">
        <ele>568.737354</ele>
        <time>2026-08-09T13:19:56.405Z</time>
      </trkpt>
      <trkpt lat="48.048305" lon="11.704301">
        <ele>568.743842</ele>
        <time>2026-08-09T13:19:59.050Z</time>
      </trkpt>
      <trkpt lat="48.048192" lon="11.703361">
        <ele>568.871393</ele>
        <time>2026-08-09T13:20:50.409Z</time>
      </trkpt>
      <trkpt lat="48.048169" lon="11.703164">
        <ele>568.898101</ele>
        <time>2026-08-09T13:21:01.141Z</time>
      </trkpt>
      <trkpt lat="48.048159" lon="11.703064">
        <ele>568.911604</ele>
        <time>2026-08-09T13:21:06.565Z</time>
      </trkpt>
      <trkpt lat="48.048146" lon="11.702887">
        <ele>568.935385</ele>
        <time>2026-08-09T13:21:16.126Z</time>
      </trkpt>
      <trkpt lat="48.048147" lon="11.702796">
        <ele>568.914815</ele>
        <time>2026-08-09T13:21:20.986Z</time>
      </trkpt>
      <trkpt lat="48.048148" lon="11.702591">
        <ele>568.860019</ele>
        <time>2026-08-09T13:21:31.973Z</time>
      </trkpt>
      <trkpt lat="48.048099" lon="11.702585">
        <ele>568.840362</ele>
        <time>2026-08-09T13:21:35.927Z</time>
      </trkpt>
      <trkpt lat="48.048079" lon="11.702261">
        <ele>568.753392</ele>
        <time>2026-08-09T13:21:53.448Z</time>
      </trkpt>
      <trkpt lat="48.048035" lon="11.702227">
        <ele>568.733591</ele>
        <time>2026-08-09T13:21:57.478Z</time>
      </trkpt>
      <trkpt lat="48.048030" lon="11.702099">
        <ele>568.699319</ele>
        <time>2026-08-09T13:22:04.428Z</time>
      </trkpt>
      <trkpt lat="48.048024" lon="11.702011">
        <ele>568.675675</ele>
        <time>2026-08-09T13:22:09.213Z</time>
      </trkpt>
      <trkpt lat="48.048023" lon="11.701989">
        <ele>568.669782</ele>
        <time>2026-08-09T13:22:10.473Z</time>
      </trkpt>
      <trkpt lat="48.048056" lon="11.701924">
        <ele>568.647965</ele>
        <time>2026-08-09T13:22:14.905Z</time>
      </trkpt>
      <trkpt lat="48.048052" lon="11.701828">
        <ele>568.622256</ele>
        <time>2026-08-09T13:22:20.099Z</time>
      </trkpt>
      <trkpt lat="48.048097" lon="11.701812">
        <ele>568.603762</ele>
        <time>2026-08-09T13:22:23.867Z</time>
      </trkpt>
      <trkpt lat="48.048140" lon="11.701797">
        <ele>568.586108</ele>
        <time>2026-08-09T13:22:27.483Z</time>
      </trkpt>
      <trkpt lat="48.048130" lon="11.701730">
        <ele>568.567759</ele>
        <time>2026-08-09T13:22:31.222Z</time>
      </trkpt>
      <trkpt lat="48.048059" lon="11.701104">
        <ele>568.398044</ele>
        <time>2026-08-09T13:23:05.571Z</time>
      </trkpt>
      <trkpt lat="48.047963" lon="11.700477">
        <ele>568.226114</ele>
        <time>2026-08-09T13:23:40.303Z</time>
      </trkpt>
      <trkpt lat="48.047945" lon="11.700235">
        <ele>568.217483</ele>
        <time>2026-08-09T13:23:53.422Z</time>
      </trkpt>
      <trkpt lat="48.047896" lon="11.700248">
        <ele>568.217483</ele>
        <time>2026-08-09T13:23:57.464Z</time>
      </trkpt>
      <trkpt lat="48.047841" lon="11.700263">
        <ele>568.217483</ele>
        <time>2026-08-09T13:24:02.002Z</time>
      </trkpt>
      <trkpt lat="48.047800" lon="11.699952">
        <ele>568.217483</ele>
        <time>2026-08-09T13:24:19.112Z</time>
      </trkpt>
      <trkpt lat="48.047780" lon="11.699752">
        <ele>568.217483</ele>
        <time>2026-08-09T13:24:30.008Z</time>
      </trkpt>
      <trkpt lat="48.047770" lon="11.699601">
        <ele>568.217483</ele>
        <time>2026-08-09T13:24:38.204Z</time>
      </trkpt>
      <trkpt lat="48.047718" lon="11.699527">
        <ele>568.217483</ele>
        <time>2026-08-09T13:24:43.988Z</time>
      </trkpt>
      <trkpt lat="48.047691" lon="11.699306">
        <ele>568.217483</ele>
        <time>2026-08-09T13:24:56.035Z</time>
      </trkpt>
      <trkpt lat="48.047680" lon="11.699208">
        <ele>568.217483</ele>
        <time>2026-08-09T13:25:01.354Z</time>
      </trkpt>
      <trkpt lat="48.047580" lon="11.698611">
        <ele>568.217483</ele>
        <time>2026-08-09T13:25:34.583Z</time>
      </trkpt>
      <trkpt lat="48.047450" lon="11.698365">
        <ele>568.217483</ele>
        <time>2026-08-09T13:25:51.396Z</time>
      </trkpt>
      <trkpt lat="48.047436" lon="11.698339">
        <ele>568.217483</ele>
        <time>2026-08-09T13:25:53.207Z</time>
      </trkpt>
      <trkpt lat="48.047410" lon="11.698289">
        <ele>568.217483</ele>
        <time>2026-08-09T13:25:56.645Z</time>
      </trkpt>
      <trkpt lat="48.047401" lon="11.698233">
        <ele>568.217483</ele>
        <time>2026-08-09T13:25:59.719Z</time>
      </trkpt>
      <trkpt lat="48.047397" lon="11.698225">
        <ele>568.217483</ele>
        <time>2026-08-09T13:26:00.242Z</time>
      </trkpt>
      <trkpt lat="48.047355" lon="11.698135">
        <ele>568.217483</ele>
        <time>2026-08-09T13:26:06.161Z</time>
      </trkpt>
    </trkseg>
  </trk>
</gpx>